Time;durP1;ratioP1;P1;durP2;ratioP2;P2;SDS_P1;SDS_P2;PMS_P1;PMS_P2;Temp;Humidity;BMP_temperature;BMP_pressure;BME280_temperature;BME280_humidity;BME280_pressure;Samples;Min_cycle;Max_cycle;Signal;HPM_P1;HPM_P2
2022/03/23 00:01:09;;;;;;;35.03;16.70;;;9.00;50.80;;;;;;5029380;28;20053;-70
2022/03/23 00:03:35;;;;;;;30.92;14.48;;;9.00;50.90;;;;;;5013615;28;20087;-69
2022/03/23 00:06:12;;;;;;;30.42;14.35;;;9.00;50.90;;;;;;5013301;28;20053;-69
2022/03/23 00:08:37;;;;;;;29.85;14.73;;;9.00;51.00;;;;;;5013485;28;20058;-69
2022/03/23 00:11:06;;;;;;;32.17;15.90;;;9.00;51.20;;;;;;5013363;28;20057;-69
2022/03/23 00:13:31;;;;;;;30.15;15.02;;;8.80;50.80;;;;;;5013349;28;20049;-69
2022/03/23 00:15:58;;;;;;;27.48;14.70;;;8.80;50.60;;;;;;5013838;28;20330;-69
2022/03/23 00:18:24;;;;;;;28.52;14.45;;;8.80;50.60;;;;;;5013518;28;20483;-69
2022/03/23 00:20:50;;;;;;;32.67;13.98;;;8.80;50.80;;;;;;5012941;28;20236;-69
2022/03/23 00:23:15;;;;;;;29.70;14.63;;;8.80;50.70;;;;;;5013187;28;20112;-69
2022/03/23 00:25:41;;;;;;;39.67;15.75;;;8.70;50.40;;;;;;5013086;28;20045;-69
2022/03/23 00:28:07;;;;;;;28.88;14.77;;;8.70;50.90;;;;;;5012519;28;20030;-69
2022/03/23 00:30:34;;;;;;;29.50;14.77;;;8.70;50.90;;;;;;5012959;28;20042;-69
2022/03/23 00:33:02;;;;;;;27.30;14.40;;;8.50;51.00;;;;;;5013298;28;20332;-69
2022/03/23 00:35:29;;;;;;;27.23;14.88;;;8.50;51.00;;;;;;5013225;28;20034;-69
2022/03/23 00:37:55;;;;;;;31.23;13.95;;;8.50;50.70;;;;;;5013016;28;20026;-69
2022/03/23 00:40:21;;;;;;;27.13;13.30;;;8.50;50.40;;;;;;5012986;28;20714;-69
2022/03/23 00:42:47;;;;;;;28.95;14.23;;;8.50;50.40;;;;;;5013471;28;20056;-69
2022/03/23 00:45:13;;;;;;;27.35;14.02;;;8.40;50.60;;;;;;5012751;28;20045;-70
2022/03/23 00:47:40;;;;;;;28.45;15.15;;;8.50;51.20;;;;;;5012780;28;20088;-69
2022/03/23 00:50:06;;;;;;;29.02;14.15;;;8.40;51.20;;;;;;5012704;28;20436;-69
2022/03/23 00:52:32;;;;;;;29.52;14.38;;;8.30;51.20;;;;;;5012545;28;20064;-70
2022/03/23 00:54:58;;;;;;;25.55;14.70;;;8.30;51.30;;;;;;5013031;28;20018;-69
2022/03/23 00:57:23;;;;;;;28.25;14.23;;;8.20;51.20;;;;;;5012358;28;20045;-70
2022/03/23 00:59:49;;;;;;;29.73;14.20;;;8.20;51.60;;;;;;5012457;28;20044;-69
2022/03/23 01:02:14;;;;;;;23.35;14.15;;;8.20;51.00;;;;;;5012234;28;20107;-70
2022/03/23 01:04:41;;;;;;;31.55;15.25;;;8.10;50.20;;;;;;5007881;28;20045;-69
2022/03/23 01:07:06;;;;;;;27.70;14.25;;;8.10;49.60;;;;;;4993231;28;20026;-70
2022/03/23 01:09:32;;;;;;;27.83;14.18;;;8.10;49.60;;;;;;5011991;28;20034;-69
2022/03/23 01:11:58;;;;;;;30.85;14.57;;;8.10;49.80;;;;;;5012306;28;20030;-70
2022/03/23 01:14:25;;;;;;;26.85;14.38;;;8.10;49.90;;;;;;5012271;28;20033;-70
2022/03/23 01:16:52;;;;;;;28.40;14.30;;;8.10;49.80;;;;;;5012115;28;20040;-71
2022/03/23 01:19:22;;;;;;;22.67;13.25;;;8.10;50.20;;;;;;5010955;28;20109;-71
2022/03/23 01:21:48;;;;;;;24.50;13.38;;;8.00;50.80;;;;;;5012182;28;20375;-69
2022/03/23 01:24:13;;;;;;;25.63;14.30;;;8.00;51.00;;;;;;5012099;28;20030;-70
2022/03/23 01:26:39;;;;;;;28.00;14.43;;;7.90;50.90;;;;;;5012092;28;20561;-71
2022/03/23 01:29:04;;;;;;;30.58;14.52;;;7.80;51.20;;;;;;5012001;28;20030;-69
2022/03/23 01:31:31;;;;;;;26.13;14.02;;;7.80;51.40;;;;;;5011828;28;20052;-70
2022/03/23 01:33:59;;;;;;;28.30;14.23;;;7.80;51.90;;;;;;5012335;28;20025;-70
2022/03/23 01:36:29;;;;;;;;;;;7.70;51.70;;;;;;5027604;28;20463;-69
2022/03/23 01:38:56;;;;;;;28.65;13.38;;;7.70;51.90;;;;;;5011741;28;19913;-70
2022/03/23 01:41:22;;;;;;;26.08;13.88;;;7.60;52.00;;;;;;5011754;28;20433;-69
2022/03/23 01:43:48;;;;;;;24.20;13.48;;;7.60;52.20;;;;;;5011897;28;20037;-71
2022/03/23 01:46:18;;;;;;;26.65;13.43;;;7.60;52.20;;;;;;5011505;28;20017;-70
2022/03/23 01:48:45;;;;;;;27.98;14.55;;;7.70;52.30;;;;;;5012165;28;20094;-70
2022/03/23 01:51:12;;;;;;;25.70;13.73;;;7.70;52.00;;;;;;5011592;28;20026;-70
2022/03/23 01:53:38;;;;;;;30.00;13.85;;;7.60;52.50;;;;;;5011469;28;20143;-70
2022/03/23 01:56:11;;;;;;;28.40;13.82;;;7.60;52.30;;;;;;5011395;28;20068;-71
2022/03/23 01:58:37;;;;;;;23.88;13.55;;;7.50;52.70;;;;;;5026684;28;20041;-70
2022/03/23 02:01:06;;;;;;;26.85;13.43;;;7.40;52.50;;;;;;5011774;28;20022;-69
2022/03/23 02:03:32;;;;;;;24.85;13.65;;;7.40;52.70;;;;;;5011666;28;20045;-69
2022/03/23 02:05:58;;;;;;;27.17;13.73;;;7.30;52.90;;;;;;5011451;28;20056;-68
2022/03/23 02:08:23;;;;;;;21.90;12.45;;;7.30;52.90;;;;;;5011103;28;20030;-69
2022/03/23 02:10:49;;;;;;;22.25;13.15;;;7.30;52.80;;;;;;5026075;28;20026;-69
2022/03/23 02:13:14;;;;;;;29.80;14.45;;;7.30;53.00;;;;;;5011392;28;20062;-70
2022/03/23 02:15:40;;;;;;;27.55;13.32;;;7.20;52.60;;;;;;5011607;28;20022;-69
2022/03/23 02:18:06;;;;;;;29.00;13.95;;;7.20;52.60;;;;;;5006730;28;20034;-69
2022/03/23 02:20:32;;;;;;;26.67;14.25;;;7.20;53.00;;;;;;5001951;28;20054;-68
2022/03/23 02:22:59;;;;;;;31.13;14.75;;;7.10;53.50;;;;;;5010773;28;20034;-70
2022/03/23 02:25:26;;;;;;;26.42;13.88;;;7.10;53.40;;;;;;5010894;28;20037;-71
2022/03/23 02:27:53;;;;;;;25.40;14.07;;;7.10;53.00;;;;;;5011273;28;20030;-70
2022/03/23 02:30:19;;;;;;;27.38;14.07;;;6.90;53.40;;;;;;5010839;28;20041;-69
2022/03/23 02:32:45;;;;;;;26.40;14.27;;;6.90;53.90;;;;;;5010833;28;20052;-70
2022/03/23 02:35:11;;;;;;;30.13;15.25;;;6.90;54.00;;;;;;5010738;28;20126;-69
2022/03/23 02:37:38;;;;;;;27.77;14.65;;;6.90;54.20;;;;;;5010867;28;20456;-69
2022/03/23 02:40:04;;;;;;;38.35;15.45;;;6.80;54.20;;;;;;5011093;28;20026;-68
2022/03/23 02:42:30;;;;;;;31.90;16.08;;;6.80;54.30;;;;;;5010616;28;20162;-68
2022/03/23 02:44:56;;;;;;;34.95;16.23;;;6.80;54.20;;;;;;5010791;28;20121;-68
2022/03/23 02:47:22;;;;;;;29.77;14.45;;;6.80;54.50;;;;;;5010667;28;20196;-69
2022/03/23 02:49:47;;;;;;;27.92;14.07;;;6.80;54.80;;;;;;5010659;28;20029;-71
2022/03/23 02:52:13;;;;;;;28.55;14.25;;;6.70;54.80;;;;;;5010598;28;20030;-71
2022/03/23 03:03:15;;;;;;;30.42;14.20;;;6.60;54.60;;;;;;5010478;28;20049;-68
2022/03/23 03:05:40;;;;;;;27.45;14.25;;;6.60;54.70;;;;;;5009538;28;20038;-69
2022/03/23 03:10:50;;;;;;;37.92;14.95;;;6.50;55.10;;;;;;5010994;28;20091;-68
2022/03/23 03:13:16;;;;;;;27.95;14.32;;;6.50;55.50;;;;;;5010303;28;20030;-69
2022/03/23 03:15:41;;;;;;;29.08;14.25;;;6.50;55.20;;;;;;5011152;28;20111;-69
2022/03/23 03:18:07;;;;;;;27.45;14.35;;;6.40;55.10;;;;;;5010337;28;20048;-68
2022/03/23 03:20:32;;;;;;;32.00;14.57;;;6.40;55.20;;;;;;5010174;28;20093;-69
2022/03/23 03:22:58;;;;;;;29.60;14.70;;;6.40;55.30;;;;;;5013487;28;20029;-68
2022/03/23 03:25:24;;;;;;;30.38;15.02;;;6.30;55.20;;;;;;5014191;28;20440;-68
2022/03/23 03:27:50;;;;;;;26.58;14.27;;;6.30;55.30;;;;;;5014620;28;20026;-68
2022/03/23 03:30:17;;;;;;;27.75;13.43;;;6.20;55.40;;;;;;5014005;28;20060;-68
2022/03/23 03:32:43;;;;;;;23.97;13.33;;;6.20;55.60;;;;;;5013044;28;20053;-68
2022/03/23 03:35:10;;;;;;;26.90;13.82;;;6.20;55.50;;;;;;5013058;28;20337;-68
2022/03/23 03:37:37;;;;;;;25.38;14.00;;;6.20;55.30;;;;;;5012709;28;20045;-67
2022/03/23 03:40:04;;;;;;;24.65;14.35;;;6.10;55.40;;;;;;5014240;28;20615;-69
2022/03/23 03:42:30;;;;;;;28.55;14.48;;;6.10;55.70;;;;;;5013939;28;20041;-69
2022/03/23 03:44:57;;;;;;;29.80;14.43;;;6.00;55.60;;;;;;5013879;28;20088;-69
2022/03/23 03:47:23;;;;;;;26.52;13.70;;;6.00;56.00;;;;;;5013693;28;20040;-68
2022/03/23 03:49:49;;;;;;;30.48;15.00;;;6.00;56.00;;;;;;5013799;28;20030;-68
2022/03/23 03:52:15;;;;;;;30.15;15.65;;;6.10;56.10;;;;;;5014038;28;20088;-68
2022/03/23 03:54:40;;;;;;;25.70;14.13;;;6.00;56.20;;;;;;5014175;28;20109;-69
2022/03/23 03:57:07;;;;;;;32.15;15.02;;;6.00;56.50;;;;;;5013725;28;20637;-69
2022/03/23 03:59:34;;;;;;;29.27;13.63;;;6.10;56.40;;;;;;5013592;28;20038;-69
2022/03/23 04:02:00;;;;;;;27.30;14.60;;;5.90;56.60;;;;;;5013743;28;20136;-69
2022/03/23 04:04:25;;;;;;;35.38;18.20;;;5.90;56.70;;;;;;5013471;28;20104;-68
2022/03/23 04:06:51;;;;;;;27.42;14.65;;;5.80;56.60;;;;;;5013089;28;20341;-68
2022/03/23 04:09:17;;;;;;;25.98;13.80;;;5.80;56.70;;;;;;5013403;28;20034;-68
2022/03/23 04:11:42;;;;;;;26.38;13.93;;;5.80;56.70;;;;;;5012473;28;20022;-68
2022/03/23 04:14:08;;;;;;;32.03;14.38;;;5.80;56.80;;;;;;5013370;28;20514;-68
2022/03/23 04:16:33;;;;;;;29.33;13.90;;;5.70;57.00;;;;;;5013183;28;20022;-68
2022/03/23 04:18:59;;;;;;;25.38;15.30;;;5.70;57.20;;;;;;5013567;28;20348;-68
2022/03/23 04:21:24;;;;;;;29.45;14.93;;;5.70;57.20;;;;;;5013023;28;20069;-69
2022/03/23 04:23:50;;;;;;;32.42;15.98;;;5.70;57.40;;;;;;5013142;28;20137;-67
2022/03/23 04:26:15;;;;;;;26.45;14.35;;;5.70;57.40;;;;;;5012269;28;20447;-69
2022/03/23 04:28:41;;;;;;;32.55;16.02;;;5.70;57.50;;;;;;5013145;28;20041;-69
2022/03/23 04:31:07;;;;;;;28.67;14.48;;;5.80;57.70;;;;;;5013353;28;20029;-69
2022/03/23 04:33:33;;;;;;;29.08;15.85;;;5.70;57.60;;;;;;5012471;28;20037;-69
2022/03/23 04:35:59;;;;;;;30.92;14.57;;;5.60;57.70;;;;;;5012990;28;20026;-68
2022/03/23 04:38:26;;;;;;;27.65;14.90;;;5.60;57.90;;;;;;5011710;28;20480;-68
2022/03/23 04:40:52;;;;;;;34.55;14.75;;;5.50;58.20;;;;;;5012729;28;20064;-68
2022/03/23 04:43:17;;;;;;;30.67;15.70;;;5.60;58.40;;;;;;5012769;28;20336;-68
2022/03/23 04:45:43;;;;;;;30.63;17.30;;;5.50;58.60;;;;;;5011974;28;20111;-69
2022/03/23 04:48:08;;;;;;;30.25;16.00;;;5.60;58.80;;;;;;5012952;28;20064;-67
2022/03/23 04:50:34;;;;;;;29.30;15.73;;;5.50;58.80;;;;;;5012673;28;20117;-68
2022/03/23 04:53:00;;;;;;;30.20;15.48;;;5.50;59.00;;;;;;5012599;28;20041;-68
2022/03/23 04:55:25;;;;;;;29.90;15.20;;;5.50;59.20;;;;;;5012494;28;20026;-69
2022/03/23 04:57:51;;;;;;;32.03;15.23;;;5.50;59.10;;;;;;5012962;28;20100;-69
2022/03/23 05:00:20;;;;;;;36.38;16.65;;;5.50;59.20;;;;;;5012683;28;20036;-69
2022/03/23 05:02:48;;;;;;;30.27;15.10;;;5.40;58.80;;;;;;5011073;28;20112;-68
2022/03/23 05:05:14;;;;;;;33.03;15.55;;;5.40;58.90;;;;;;5012359;28;20042;-68
2022/03/23 05:07:41;;;;;;;29.02;15.23;;;5.30;59.30;;;;;;5012258;28;20049;-68
2022/03/23 05:10:08;;;;;;;36.20;16.33;;;5.20;59.50;;;;;;5012642;28;20439;-68
2022/03/23 05:12:38;;;;;;;36.42;15.85;;;5.20;60.50;;;;;;5012143;28;20030;-69
2022/03/23 05:15:05;;;;;;;30.73;14.60;;;5.20;59.90;;;;;;5011046;28;20025;-68
2022/03/23 05:17:38;;;;;;;37.67;16.38;;;5.20;59.80;;;;;;5011054;28;20360;-67
2022/03/23 05:20:04;;;;;;;29.17;15.50;;;5.20;60.00;;;;;;5011719;28;20030;-68
2022/03/23 05:22:30;;;;;;;29.90;15.00;;;5.20;60.70;;;;;;5012013;28;20030;-69
2022/03/23 05:24:56;;;;;;;44.17;16.80;;;5.20;60.80;;;;;;5012408;28;20022;-67
2022/03/23 05:27:22;;;;;;;31.77;15.05;;;5.50;60.40;;;;;;5012208;28;20049;-68
2022/03/23 05:29:48;;;;;;;37.45;15.77;;;5.40;60.20;;;;;;5011869;28;20026;-68
2022/03/23 05:32:16;;;;;;;29.92;15.50;;;5.30;60.30;;;;;;5011950;28;20026;-69
2022/03/23 05:34:51;;;;;;;;;;;5.30;60.70;;;;;;5012344;28;20030;-68
2022/03/23 05:37:17;;;;;;;31.25;15.88;;;5.20;60.70;;;;;;5011772;28;19906;-68
2022/03/23 05:39:44;;;;;;;32.95;16.50;;;5.20;60.30;;;;;;5012206;28;20080;-68
2022/03/23 05:42:10;;;;;;;36.17;16.10;;;5.00;60.50;;;;;;5011888;28;20049;-68
2022/03/23 05:44:36;;;;;;;31.45;16.58;;;5.00;60.70;;;;;;5009785;28;20061;-68
2022/03/23 05:47:03;;;;;;;35.85;15.82;;;5.00;60.80;;;;;;5011611;28;20034;-68
2022/03/23 05:49:28;;;;;;;36.55;16.27;;;5.10;61.40;;;;;;5011350;28;20520;-68
2022/03/23 05:51:54;;;;;;;33.85;16.58;;;5.10;61.10;;;;;;5012141;28;20026;-68
2022/03/23 05:54:20;;;;;;;36.83;17.45;;;5.20;61.20;;;;;;5011799;28;20034;-68
2022/03/23 05:56:46;;;;;;;31.90;16.33;;;5.20;61.20;;;;;;5011551;28;20037;-68
2022/03/23 05:59:11;;;;;;;33.65;15.80;;;5.20;61.10;;;;;;5011375;28;20106;-69
2022/03/23 06:01:37;;;;;;;28.77;15.13;;;5.30;60.90;;;;;;5009944;28;20107;-69
2022/03/23 06:04:03;;;;;;;39.28;16.27;;;5.20;60.80;;;;;;5010348;28;20030;-70
2022/03/23 06:06:29;;;;;;;26.90;14.50;;;5.30;60.90;;;;;;5011219;28;20041;-69
2022/03/23 06:08:55;;;;;;;31.17;15.13;;;5.30;60.90;;;;;;5011112;28;20541;-67
2022/03/23 06:11:21;;;;;;;36.05;16.17;;;5.30;61.20;;;;;;5011431;28;20034;-66
2022/03/23 06:13:46;;;;;;;33.10;15.63;;;5.40;61.10;;;;;;5010261;28;20026;-68
2022/03/23 06:16:12;;;;;;;32.70;16.40;;;5.40;61.00;;;;;;5009963;28;20033;-66
2022/03/23 06:18:38;;;;;;;36.35;15.43;;;5.40;61.00;;;;;;5011435;28;20026;-68
2022/03/23 06:21:10;;;;;;;33.05;15.82;;;5.40;61.20;;;;;;5010904;28;20124;-69
2022/03/23 06:23:35;;;;;;;32.35;15.70;;;5.40;61.40;;;;;;5010141;28;20356;-69
2022/03/23 06:26:06;;;;;;;31.38;15.68;;;5.40;61.40;;;;;;5010118;28;20026;-69
2022/03/23 06:28:32;;;;;;;30.50;16.48;;;5.60;61.70;;;;;;5009982;28;20486;-69
2022/03/23 06:30:58;;;;;;;38.92;15.70;;;5.60;61.80;;;;;;5011253;28;20026;-69
2022/03/23 06:33:24;;;;;;;42.50;16.90;;;5.70;61.80;;;;;;5010994;28;20026;-69
2022/03/23 06:35:51;;;;;;;35.67;16.02;;;5.80;61.50;;;;;;5010707;28;20054;-68
2022/03/23 06:38:17;;;;;;;34.07;15.90;;;5.90;61.30;;;;;;5010973;28;20053;-69
2022/03/23 06:40:43;;;;;;;54.42;17.92;;;6.10;60.10;;;;;;5010905;28;20022;-69
2022/03/23 06:43:09;;;;;;;34.75;15.85;;;6.20;59.90;;;;;;5011118;28;20113;-69
2022/03/23 06:45:35;;;;;;;34.03;16.52;;;6.30;60.50;;;;;;5010668;28;20119;-69
2022/03/23 06:48:02;;;;;;;42.65;15.30;;;6.40;60.50;;;;;;5009503;28;20128;-69
2022/03/23 06:50:27;;;;;;;38.97;17.23;;;6.50;59.40;;;;;;5009313;28;20041;-71
2022/03/23 06:52:53;;;;;;;44.47;19.90;;;6.60;59.60;;;;;;5009309;28;20113;-70
2022/03/23 06:55:18;;;;;;;37.88;19.42;;;6.70;59.60;;;;;;5011144;28;20022;-71
2022/03/23 06:57:44;;;;;;;37.42;18.38;;;6.90;59.50;;;;;;5014135;28;20488;-72
2022/03/23 07:00:13;;;;;;;49.67;18.67;;;7.00;59.00;;;;;;5014973;28;20030;-73
2022/03/23 07:02:44;;;;;;;37.63;16.88;;;7.10;60.00;;;;;;5014851;28;20148;-72
2022/03/23 07:05:11;;;;;;;40.72;17.10;;;7.20;60.00;;;;;;5013757;28;20033;-72
2022/03/23 07:07:37;;;;;;;39.42;17.00;;;7.30;59.50;;;;;;5014557;28;20033;-70
2022/03/23 07:10:04;;;;;;;41.72;18.30;;;7.40;59.90;;;;;;5014876;28;20030;-71
2022/03/23 07:12:30;;;;;;;38.40;17.05;;;7.40;60.60;;;;;;5014460;28;20414;-69
2022/03/23 07:14:56;;;;;;;34.10;15.25;;;7.50;61.00;;;;;;5014497;28;20063;-72
2022/03/23 07:17:22;;;;;;;31.20;14.65;;;7.40;61.20;;;;;;5014172;28;20527;-73
2022/03/23 07:19:47;;;;;;;36.15;17.05;;;7.50;60.80;;;;;;5014121;28;20030;-72
2022/03/23 07:22:14;;;;;;;41.95;17.25;;;7.70;61.10;;;;;;5012756;28;20069;-73
2022/03/23 07:24:40;;;;;;;33.88;17.02;;;7.80;60.60;;;;;;5014608;28;20098;-74
2022/03/23 07:27:05;;;;;;;41.00;17.40;;;7.90;59.90;;;;;;5014170;28;20030;-72
2022/03/23 07:29:31;;;;;;;40.17;17.25;;;8.10;59.70;;;;;;5014556;28;20030;-72
2022/03/23 07:31:57;;;;;;;43.53;17.90;;;8.20;59.60;;;;;;5014261;28;20034;-71
2022/03/23 07:34:23;;;;;;;41.00;17.25;;;8.30;59.40;;;;;;5013983;28;20636;-72
2022/03/23 07:36:49;;;;;;;40.33;18.83;;;8.50;59.30;;;;;;5013493;28;20014;-73
2022/03/23 07:39:20;;;;;;;45.53;18.42;;;8.50;58.80;;;;;;5014132;28;20421;-73
2022/03/23 07:41:55;;;;;;;35.85;18.55;;;8.70;58.90;;;;;;5014054;28;20034;-73
2022/03/23 07:44:21;;;;;;;44.75;17.90;;;8.80;58.80;;;;;;5012744;28;20112;-74
2022/03/23 07:46:47;;;;;;;36.13;17.27;;;9.00;58.30;;;;;;5014397;28;20173;-72
2022/03/23 07:49:13;;;;;;;34.95;17.73;;;9.10;58.00;;;;;;5012790;28;20517;-72
2022/03/23 07:51:39;;;;;;;38.38;17.08;;;9.20;58.10;;;;;;5014287;28;20055;-70
2022/03/23 07:54:06;;;;;;;36.15;17.45;;;9.30;58.00;;;;;;5013776;28;20042;-73
2022/03/23 07:56:31;;;;;;;43.40;17.70;;;9.40;57.50;;;;;;5013714;28;20034;-72
2022/03/23 07:58:58;;;;;;;36.92;17.70;;;9.60;57.20;;;;;;5013904;28;20034;-74
2022/03/23 08:01:23;;;;;;;38.97;16.92;;;9.70;56.80;;;;;;5013757;28;20025;-71
2022/03/23 08:03:49;;;;;;;35.67;16.48;;;9.80;56.30;;;;;;5014164;28;20356;-72
2022/03/23 08:06:15;;;;;;;31.45;16.02;;;9.90;55.80;;;;;;5029045;28;20363;-71
2022/03/23 08:08:40;;;;;;;39.65;18.05;;;10.00;54.30;;;;;;5012956;28;20030;-73
2022/03/23 08:11:09;;;;;;;32.05;15.85;;;10.10;54.00;;;;;;5013944;28;20030;-71
2022/03/23 08:13:35;;;;;;;38.33;17.10;;;10.20;53.80;;;;;;5013394;28;20467;-70
2022/03/23 08:16:01;;;;;;;35.95;16.38;;;10.30;53.20;;;;;;5014688;28;20113;-74
2022/03/23 08:18:27;;;;;;;35.00;16.73;;;10.40;52.60;;;;;;5013423;28;20036;-73
2022/03/23 08:20:53;;;;;;;30.00;16.40;;;10.50;52.70;;;;;;5014740;28;20523;-76
2022/03/23 08:23:19;;;;;;;42.90;19.05;;;10.60;52.50;;;;;;5013868;28;20034;-70
2022/03/23 08:25:45;;;;;;;35.17;18.27;;;10.70;51.80;;;;;;5013636;28;20495;-75
2022/03/23 08:28:14;;;;;;;36.30;18.33;;;10.70;51.30;;;;;;5014090;28;20404;-73
2022/03/23 08:30:40;;;;;;;34.63;17.63;;;10.80;51.20;;;;;;5013289;28;20070;-73
2022/03/23 08:33:06;;;;;;;32.92;16.52;;;11.00;50.60;;;;;;5012999;28;20717;-70
2022/03/23 08:35:32;;;;;;;36.33;16.45;;;11.10;50.60;;;;;;5013084;28;20038;-73
2022/03/23 08:37:58;;;;;;;36.17;17.27;;;11.20;50.00;;;;;;5012903;28;20034;-72
2022/03/23 08:40:24;;;;;;;31.85;17.05;;;11.80;50.00;;;;;;5013312;28;20360;-72
2022/03/23 08:42:50;;;;;;;34.55;17.27;;;12.10;49.10;;;;;;5014663;28;20456;-72
2022/03/23 08:45:17;;;;;;;38.15;17.95;;;12.30;48.70;;;;;;5014476;28;20057;-73
2022/03/23 08:47:43;;;;;;;33.10;16.83;;;12.30;48.30;;;;;;5012467;28;20030;-74
2022/03/23 08:50:11;;;;;;;37.67;18.05;;;12.40;47.60;;;;;;5013525;28;20030;-73
2022/03/23 08:52:38;;;;;;;35.60;17.40;;;12.50;48.10;;;;;;5013093;28;20030;-73
2022/03/23 08:55:06;;;;;;;36.55;18.50;;;12.70;48.20;;;;;;5013974;28;20121;-71
2022/03/23 08:57:32;;;;;;;34.50;18.83;;;12.80;47.10;;;;;;5013978;28;20105;-73
2022/03/23 08:59:57;;;;;;;41.55;18.63;;;13.10;47.10;;;;;;5014238;28;20038;-77
2022/03/23 09:02:23;;;;;;;30.15;17.70;;;14.20;46.00;;;;;;5013695;28;20455;-73
2022/03/23 09:04:48;;;;;;;32.92;17.85;;;15.90;45.20;;;;;;5013197;28;20041;-73
2022/03/23 09:07:14;;;;;;;31.20;17.58;;;18.00;43.30;;;;;;5012652;28;20539;-71
2022/03/23 09:09:40;;;;;;;40.13;19.30;;;19.90;40.60;;;;;;5013119;28;20025;-72
2022/03/23 09:12:05;;;;;;;32.17;18.02;;;21.50;37.40;;;;;;5012805;28;20058;-70
2022/03/23 09:14:32;;;;;;;32.17;16.88;;;22.30;35.80;;;;;;5012857;28;20030;-74
2022/03/23 09:16:58;;;;;;;41.28;18.40;;;23.50;35.10;;;;;;5013612;28;20341;-71
2022/03/23 09:19:23;;;;;;;36.55;18.80;;;24.00;33.30;;;;;;5012101;28;20052;-72
2022/03/23 09:21:50;;;;;;;44.40;19.08;;;24.80;32.10;;;;;;5012377;28;20046;-69
2022/03/23 09:24:17;;;;;;;29.98;18.15;;;25.60;31.20;;;;;;5012514;28;20033;-73
2022/03/23 09:26:43;;;;;;;;;;;26.30;29.50;;;;;;5012581;28;20026;-74
2022/03/23 09:29:09;;;;;;;35.35;17.95;;;26.40;29.70;;;;;;5027835;28;19931;-77
2022/03/23 09:31:35;;;;;;;33.67;16.83;;;27.30;29.00;;;;;;5011302;28;20018;-73
2022/03/23 09:34:02;;;;;;;23.63;16.02;;;27.60;28.60;;;;;;5012345;28;20030;-72
2022/03/23 09:39:13;;;;;;;26.35;16.30;;;27.90;27.10;;;;;;5012148;28;20044;-72
2022/03/23 09:41:40;;;;;;;24.92;16.05;;;28.60;26.00;;;;;;5012011;28;20041;-73
2022/03/23 09:44:07;;;;;;;25.10;16.42;;;29.00;25.70;;;;;;5011733;28;20105;-72
2022/03/23 09:46:33;;;;;;;25.65;15.88;;;29.20;25.70;;;;;;5012081;28;20030;-71
2022/03/23 09:48:59;;;;;;;19.00;14.88;;;29.40;25.30;;;;;;5012364;28;20337;-72
2022/03/23 09:51:25;;;;;;;28.40;15.73;;;29.40;24.90;;;;;;5011919;28;20049;-77
2022/03/23 09:53:52;;;;;;;22.65;14.77;;;29.60;24.80;;;;;;5011508;28;20076;-70
2022/03/23 09:56:18;;;;;;;23.92;15.45;;;29.50;24.80;;;;;;5011719;28;20094;-68
2022/03/23 09:58:44;;;;;;;20.60;15.65;;;29.50;24.70;;;;;;5026641;28;20034;-70
2022/03/23 10:01:59;;;;;;;21.95;15.20;;;30.10;24.60;;;;;;5011861;28;20107;-70
2022/03/23 10:04:50;;;;;;;21.02;14.63;;;30.40;23.90;;;;;;4995967;28;20034;-72
2022/03/23 10:07:31;;;;;;;22.13;14.15;;;29.70;23.10;;;;;;5011172;28;20065;-75
2022/03/23 10:10:29;;;;;;;19.85;14.88;;;30.20;23.90;;;;;;5011868;28;20453;-69
2022/03/23 10:13:32;;;;;;;28.33;16.25;;;31.30;23.40;;;;;;5011237;28;20129;-70
2022/03/23 10:16:35;;;;;;;21.13;16.17;;;31.40;23.20;;;;;;5011503;28;20057;-70
2022/03/23 10:19:01;;;;;;;22.17;14.45;;;31.80;23.20;;;;;;5011217;28;20045;-73
2022/03/23 10:21:33;;;;;;;23.90;14.48;;;31.60;22.40;;;;;;5010915;28;20042;-71
2022/03/23 10:23:59;;;;;;;19.73;13.95;;;31.80;22.60;;;;;;5011103;28;20464;-71
2022/03/23 10:26:26;;;;;;;18.17;14.07;;;32.10;22.60;;;;;;5010957;28;20164;-71
2022/03/23 10:28:52;;;;;;;18.05;13.52;;;32.10;22.10;;;;;;5010942;28;20041;-72
2022/03/23 10:31:21;;;;;;;20.40;13.48;;;32.30;21.80;;;;;;5010319;28;20030;-71
2022/03/23 10:34:16;;;;;;;26.92;13.23;;;32.50;21.50;;;;;;5011443;28;20405;-73
2022/03/23 10:36:44;;;;;;;19.90;14.23;;;32.40;21.00;;;;;;5006330;28;20281;-71
2022/03/23 10:39:15;;;;;;;17.50;13.45;;;32.70;21.10;;;;;;5010998;28;20459;-71
2022/03/23 10:41:40;;;;;;;18.42;11.65;;;32.30;20.60;;;;;;5009667;28;20080;-75
2022/03/23 10:44:16;;;;;;;17.25;11.05;;;32.70;20.50;;;;;;5010744;28;20022;-74
2022/03/23 10:46:43;;;;;;;17.15;11.98;;;33.00;20.10;;;;;;5009953;28;20048;-72
2022/03/23 10:49:10;;;;;;;20.23;12.27;;;33.00;20.00;;;;;;5011537;28;20022;-71
2022/03/23 10:51:37;;;;;;;15.65;11.80;;;33.00;20.10;;;;;;5009710;28;20118;-70
2022/03/23 10:54:18;;;;;;;17.30;12.50;;;33.20;20.10;;;;;;5010767;28;20506;-74
2022/03/23 10:56:44;;;;;;;18.80;12.60;;;33.20;20.30;;;;;;5010612;28;20065;-71
2022/03/23 10:59:16;;;;;;;16.25;12.82;;;33.20;20.30;;;;;;5010629;28;20068;-75
2022/03/23 11:02:05;;;;;;;21.73;12.70;;;33.20;20.50;;;;;;5010620;28;20030;-74
2022/03/23 11:04:46;;;;;;;17.50;12.48;;;32.90;20.40;;;;;;5005680;28;20042;-73
2022/03/23 11:07:26;;;;;;;17.20;12.40;;;32.90;20.40;;;;;;5011137;28;20032;-72
2022/03/23 11:18:08;;;;;;;18.38;12.63;;;32.80;20.10;;;;;;5010065;28;20045;-72
2022/03/23 11:20:51;;;;;;;24.23;17.92;;;32.70;20.20;;;;;;5008968;28;20061;-71
2022/03/23 11:23:28;;;;;;;21.83;16.33;;;32.40;20.00;;;;;;5008900;28;20037;-71
2022/03/23 11:25:55;;;;;;;;;;;32.30;20.10;;;;;;5010932;28;20116;-72
2022/03/23 11:28:22;;;;;;;17.08;12.55;;;32.30;19.70;;;;;;5010533;28;20227;-71
2022/03/23 11:30:49;;;;;;;16.95;11.77;;;32.10;19.90;;;;;;5009815;28;20096;-72
2022/03/23 11:33:21;;;;;;;19.92;13.25;;;31.80;20.20;;;;;;5010480;28;20104;-73
2022/03/23 11:35:48;;;;;;;18.00;13.25;;;31.60;20.20;;;;;;5010374;28;20117;-72
2022/03/23 11:38:19;;;;;;;19.50;13.75;;;31.00;20.10;;;;;;5010469;28;20054;-70
2022/03/23 11:40:47;;;;;;;20.33;13.57;;;30.40;20.30;;;;;;5010236;28;20041;-71
2022/03/23 11:43:14;;;;;;;22.67;14.35;;;29.90;20.90;;;;;;5010840;28;20026;-72
2022/03/23 11:45:42;;;;;;;21.48;13.38;;;29.00;21.30;;;;;;5014395;28;20033;-69
2022/03/23 11:48:23;;;;;;;22.42;13.85;;;28.00;22.70;;;;;;5014353;28;20041;-72
2022/03/23 11:51:20;;;;;;;17.33;13.82;;;27.10;22.40;;;;;;5014010;28;20033;-75
2022/03/23 11:54:07;;;;;;;23.00;13.10;;;26.60;22.50;;;;;;5013989;28;20161;-73
2022/03/23 11:56:51;;;;;;;18.25;13.13;;;26.20;22.70;;;;;;5013771;28;20408;-76
2022/03/23 11:59:28;;;;;;;17.95;12.75;;;25.50;22.40;;;;;;5013797;28;20499;-73
2022/03/23 12:01:55;;;;;;;18.80;13.55;;;25.30;22.80;;;;;;5013682;28;20052;-74
2022/03/23 12:04:26;;;;;;;17.88;12.40;;;24.90;22.90;;;;;;5013995;28;20044;-71
2022/03/23 12:07:04;;;;;;;18.30;12.82;;;24.60;22.60;;;;;;5015267;28;20030;-72
2022/03/23 12:09:40;;;;;;;23.77;12.80;;;24.10;23.00;;;;;;5010968;28;20468;-70
2022/03/23 12:12:30;;;;;;;20.15;12.98;;;23.80;23.30;;;;;;5014058;28;20472;-75
2022/03/23 12:15:24;;;;;;;21.35;13.20;;;23.60;23.20;;;;;;5014373;28;20026;-73
2022/03/23 12:17:55;;;;;;;16.77;11.90;;;23.40;23.60;;;;;;5014476;28;20022;-74
2022/03/23 12:20:32;;;;;;;18.25;13.50;;;23.30;24.10;;;;;;5013928;28;20042;-74
2022/03/23 12:23:26;;;;;;;16.80;12.70;;;23.30;23.90;;;;;;5014315;28;20466;-73
2022/03/23 12:25:54;;;;;;;16.75;12.32;;;23.00;24.00;;;;;;5013429;28;20033;-71
2022/03/23 12:28:54;;;;;;;19.52;13.50;;;22.90;24.00;;;;;;5013611;28;20342;-72
2022/03/23 12:31:21;;;;;;;21.65;13.30;;;22.90;24.20;;;;;;5014074;28;20014;-71
2022/03/23 12:34:00;;;;;;;19.77;13.48;;;22.70;24.10;;;;;;5015248;28;20018;-72
2022/03/23 12:36:57;;;;;;;17.48;12.80;;;22.60;24.00;;;;;;5013437;28;20097;-72
2022/03/23 12:39:31;;;;;;;24.92;16.38;;;22.50;23.90;;;;;;5013435;28;20022;-73
2022/03/23 12:42:00;;;;;;;22.77;13.20;;;22.40;24.10;;;;;;5013612;28;20041;-71
2022/03/23 12:45:03;;;;;;;17.80;12.52;;;22.40;24.40;;;;;;5013541;28;20045;-71
2022/03/23 12:47:30;;;;;;;17.90;12.20;;;22.30;24.30;;;;;;5013258;28;20025;-70
2022/03/23 12:58:34;;;;;;;19.25;12.15;;;22.10;24.50;;;;;;5012945;28;20095;-74
2022/03/23 13:01:17;;;;;;;17.10;12.52;;;22.10;24.50;;;;;;5013588;28;20018;-74
2022/03/23 13:03:46;;;;;;;19.98;13.48;;;22.00;24.20;;;;;;4993763;28;20057;-74
2022/03/23 13:06:31;;;;;;;19.52;12.45;;;22.00;24.40;;;;;;4993364;28;20719;-73
2022/03/23 13:08:57;;;;;;;17.65;11.45;;;22.00;24.00;;;;;;4993200;28;20106;-72
2022/03/23 13:11:25;;;;;;;19.75;13.43;;;21.90;24.50;;;;;;4993432;28;20034;-72
2022/03/23 13:13:52;;;;;;;;;;;21.80;24.40;;;;;;4993680;28;20034;-74